Airfield :











YOU CAN JOIN US ON...

 
LOGIN :

Register | Disclaimer

   EN    FR    IT 

 









Legend :    VFR   Marginal VFR   IFR   Intensive IFR   Very Intensive IFR
Visi :
Ceiling :
>= 8 km
>= 3000ft
5 to 8 km
1000 to 3000 ft
1500m to 5 km
500 to 1000 ft
800 to 1500m
200 to 500 ft
< 800m
< 200 ft
Symbols :   Thunderstorms  Fog  Heavy snow  Heavy precipitations  Wind > 20 kt






- Airport Elevation : 15 ft
- IATA code : POP


MDPP - Gregorio Luperon International

CURRENT METAR :
  • 151600Z 10005KT 9999 FEW018CB BKN020 29/25 Q1016

EXPIRED METARs :
  • 151500Z 10006KT 9999 FEW017CB BKN018 28/25 Q1017
  • 151400Z 10008KT 9999 BKN018 27/23 Q1016

TAF TAF MDPP
Valid from the 15 at 12:00 until the 16 at 12:00 UTC


151000Z 1512/1612 00000KT 9999 BKN016
PROB30 1512/1518 6000 TSRA FEW016CB BKN017 SCT070
BECMG 1513/1515 12012KT



MET'MAP, your aeronautical weather chart ! - Copyright ORBIFLY December 2007 - Disclaimer

ORBIFLY MET'MAP TEAM :

Programming & Development : Alexandra Zaïnal
Concept & original design : Baudouin d'Aumeries
Assistance for programming : Marc-Olivier Méhu
Technical & hardware support : Manuel Goepfert

Contact : metmap@orbifly.com




SOURCES & CREDITS :

   NOAA       Earth
Advisory